sensor_id;sensor_type;location;lat;lon;timestamp;pressure;altitude;pressure_sealevel;temperature;humidity
64683;BME280;51107;47.652;19.016;2023-02-23T00:01:58;99970.91;;;6.12;83.37
64683;BME280;51107;47.652;19.016;2023-02-23T00:04:33;99970.06;;;6.11;82.57
64683;BME280;51107;47.652;19.016;2023-02-23T00:07:15;99961.00;;;6.06;83.07
64683;BME280;51107;47.652;19.016;2023-02-23T00:10:05;99961.00;;;6.06;82.96
64683;BME280;51107;47.652;19.016;2023-02-23T00:12:34;99977.13;;;6.09;84.32
64683;BME280;51107;47.652;19.016;2023-02-23T00:15:03;99973.59;;;6.10;83.56
64683;BME280;51107;47.652;19.016;2023-02-23T00:17:50;99968.88;;;6.16;84.84
64683;BME280;51107;47.652;19.016;2023-02-23T00:20:19;99971.03;;;6.10;84.64
64683;BME280;51107;47.652;19.016;2023-02-23T00:22:56;99962.09;;;6.15;84.91
64683;BME280;51107;47.652;19.016;2023-02-23T00:25:25;99967.47;;;6.00;83.46
64683;BME280;51107;47.652;19.016;2023-02-23T00:27:53;99967.69;;;5.97;82.49
64683;BME280;51107;47.652;19.016;2023-02-23T00:30:23;99975.09;;;6.02;83.65
64683;BME280;51107;47.652;19.016;2023-02-23T00:32:51;99974.28;;;6.01;83.22
64683;BME280;51107;47.652;19.016;2023-02-23T00:35:20;99964.59;;;5.92;83.12
64683;BME280;51107;47.652;19.016;2023-02-23T00:37:48;99965.91;;;5.86;84.68
64683;BME280;51107;47.652;19.016;2023-02-23T00:40:17;99969.22;;;5.88;85.24
64683;BME280;51107;47.652;19.016;2023-02-23T00:42:48;99973.78;;;5.96;84.23
64683;BME280;51107;47.652;19.016;2023-02-23T00:45:20;99959.19;;;5.95;83.82
64683;BME280;51107;47.652;19.016;2023-02-23T00:47:49;99964.19;;;5.98;84.81
64683;BME280;51107;47.652;19.016;2023-02-23T00:50:17;99977.69;;;6.02;85.40
64683;BME280;51107;47.652;19.016;2023-02-23T00:52:46;99971.72;;;6.01;84.48
64683;BME280;51107;47.652;19.016;2023-02-23T00:55:14;99969.94;;;6.02;83.56
64683;BME280;51107;47.652;19.016;2023-02-23T00:57:43;99975.72;;;6.05;83.08
64683;BME280;51107;47.652;19.016;2023-02-23T01:00:11;99971.34;;;6.06;81.30
64683;BME280;51107;47.652;19.016;2023-02-23T01:02:48;99980.88;;;6.05;79.79
64683;BME280;51107;47.652;19.016;2023-02-23T01:05:18;99979.34;;;6.14;81.01
64683;BME280;51107;47.652;19.016;2023-02-23T01:07:54;99973.59;;;6.22;81.63
64683;BME280;51107;47.652;19.016;2023-02-23T01:10:23;99975.25;;;6.23;80.08
64683;BME280;51107;47.652;19.016;2023-02-23T01:12:56;99980.63;;;6.20;79.96
64683;BME280;51107;47.652;19.016;2023-02-23T01:15:45;99979.25;;;6.27;80.35
64683;BME280;51107;47.652;19.016;2023-02-23T01:18:16;99976.53;;;6.28;80.15
64683;BME280;51107;47.652;19.016;2023-02-23T01:20:45;99981.00;;;6.26;79.80
64683;BME280;51107;47.652;19.016;2023-02-23T01:23:14;99987.94;;;6.26;79.82
64683;BME280;51107;47.652;19.016;2023-02-23T01:25:43;99972.44;;;6.26;78.54
64683;BME280;51107;47.652;19.016;2023-02-23T01:28:12;99979.81;;;6.31;79.37
64683;BME280;51107;47.652;19.016;2023-02-23T01:30:40;99986.41;;;6.35;77.84
64683;BME280;51107;47.652;19.016;2023-02-23T01:33:27;99985.34;;;6.37;78.21
64683;BME280;51107;47.652;19.016;2023-02-23T01:36:14;99984.31;;;6.40;78.27
64683;BME280;51107;47.652;19.016;2023-02-23T01:39:00;99983.72;;;6.48;79.75
64683;BME280;51107;47.652;19.016;2023-02-23T01:41:54;99980.06;;;6.50;79.56
64683;BME280;51107;47.652;19.016;2023-02-23T01:47:44;99981.69;;;6.51;77.81
64683;BME280;51107;47.652;19.016;2023-02-23T01:54:26;99969.13;;;6.46;78.40
64683;BME280;51107;47.652;19.016;2023-02-23T01:57:23;99969.81;;;6.49;78.07
64683;BME280;51107;47.652;19.016;2023-02-23T02:00:19;99971.84;;;6.45;79.04
64683;BME280;51107;47.652;19.016;2023-02-23T02:02:48;99965.94;;;6.43;78.20
64683;BME280;51107;47.652;19.016;2023-02-23T02:05:17;99957.72;;;6.38;77.04
64683;BME280;51107;47.652;19.016;2023-02-23T02:07:50;99961.94;;;6.39;77.49
64683;BME280;51107;47.652;19.016;2023-02-23T02:10:26;99954.31;;;6.37;77.27
64683;BME280;51107;47.652;19.016;2023-02-23T02:13:08;99970.19;;;6.44;77.34
64683;BME280;51107;47.652;19.016;2023-02-23T02:16:04;99968.41;;;6.44;76.32
64683;BME280;51107;47.652;19.016;2023-02-23T02:18:46;99961.34;;;6.46;76.48
64683;BME280;51107;47.652;19.016;2023-02-23T02:24:15;99957.72;;;6.49;76.81
64683;BME280;51107;47.652;19.016;2023-02-23T02:27:20;99962.16;;;6.47;76.70
64683;BME280;51107;47.652;19.016;2023-02-23T02:42:54;99963.94;;;6.58;77.27
64683;BME280;51107;47.652;19.016;2023-02-23T02:45:38;99961.00;;;6.51;76.26
64683;BME280;51107;47.652;19.016;2023-02-23T02:50:59;99967.94;;;6.51;77.33
64683;BME280;51107;47.652;19.016;2023-02-23T02:56:22;99963.97;;;6.35;76.24
64683;BME280;51107;47.652;19.016;2023-02-23T02:58:52;99968.19;;;6.36;75.16
64683;BME280;51107;47.652;19.016;2023-02-23T03:01:23;99966.91;;;6.42;76.15
64683;BME280;51107;47.652;19.016;2023-02-23T03:04:23;99966.03;;;6.53;78.30
64683;BME280;51107;47.652;19.016;2023-02-23T03:07:22;99958.28;;;6.53;76.95
64683;BME280;51107;47.652;19.016;2023-02-23T03:16:33;99973.72;;;6.54;78.23
64683;BME280;51107;47.652;19.016;2023-02-23T03:19:30;99965.59;;;6.48;76.45
64683;BME280;51107;47.652;19.016;2023-02-23T03:22:34;99983.25;;;6.42;75.63
64683;BME280;51107;47.652;19.016;2023-02-23T03:25:49;99969.59;;;6.40;76.40
64683;BME280;51107;47.652;19.016;2023-02-23T03:35:08;99980.78;;;6.41;76.38
64683;BME280;51107;47.652;19.016;2023-02-23T03:38:09;99978.78;;;6.33;75.58
64683;BME280;51107;47.652;19.016;2023-02-23T03:40:58;99984.19;;;6.30;75.72
64683;BME280;51107;47.652;19.016;2023-02-23T03:43:58;99986.53;;;6.33;75.44
64683;BME280;51107;47.652;19.016;2023-02-23T03:46:47;99977.97;;;6.33;75.36
64683;BME280;51107;47.652;19.016;2023-02-23T03:49:37;99977.03;;;6.34;75.12
64683;BME280;51107;47.652;19.016;2023-02-23T03:52:31;99983.94;;;6.33;76.29
64683;BME280;51107;47.652;19.016;2023-02-23T03:55:26;99982.19;;;6.34;76.08
64683;BME280;51107;47.652;19.016;2023-02-23T03:58:22;99979.00;;;6.30;76.28
64683;BME280;51107;47.652;19.016;2023-02-23T04:01:15;99978.28;;;6.28;75.42
64683;BME280;51107;47.652;19.016;2023-02-23T04:04:07;99972.91;;;6.31;74.77
64683;BME280;51107;47.652;19.016;2023-02-23T04:07:00;99987.47;;;6.32;75.96
64683;BME280;51107;47.652;19.016;2023-02-23T04:10:02;99993.00;;;6.39;75.37
64683;BME280;51107;47.652;19.016;2023-02-23T04:13:19;99976.19;;;6.33;75.39
64683;BME280;51107;47.652;19.016;2023-02-23T04:15:53;99982.19;;;6.34;75.66
64683;BME280;51107;47.652;19.016;2023-02-23T04:18:28;99989.12;;;6.33;75.87
64683;BME280;51107;47.652;19.016;2023-02-23T04:20:58;99987.22;;;6.24;75.63
64683;BME280;51107;47.652;19.016;2023-02-23T04:23:27;99987.59;;;6.19;74.87
64683;BME280;51107;47.652;19.016;2023-02-23T04:25:56;99982.91;;;6.24;76.21
64683;BME280;51107;47.652;19.016;2023-02-23T04:28:26;99986.41;;;6.23;75.47
64683;BME280;51107;47.652;19.016;2023-02-23T04:30:57;99983.47;;;6.17;75.34
64683;BME280;51107;47.652;19.016;2023-02-23T04:33:25;99991.47;;;6.14;75.05
64683;BME280;51107;47.652;19.016;2023-02-23T04:35:54;99991.22;;;6.17;76.10
64683;BME280;51107;47.652;19.016;2023-02-23T04:38:23;99990.41;;;6.16;75.24
64683;BME280;51107;47.652;19.016;2023-02-23T04:40:51;99986.28;;;6.14;74.93
64683;BME280;51107;47.652;19.016;2023-02-23T04:43:20;99990.41;;;6.27;77.29
64683;BME280;51107;47.652;19.016;2023-02-23T04:45:48;99998.53;;;6.23;74.97
64683;BME280;51107;47.652;19.016;2023-02-23T04:48:17;99996.03;;;6.10;75.12
64683;BME280;51107;47.652;19.016;2023-02-23T04:50:45;99990.66;;;6.13;75.69
64683;BME280;51107;47.652;19.016;2023-02-23T04:53:13;99998.75;;;6.08;76.30
64683;BME280;51107;47.652;19.016;2023-02-23T04:55:42;99986.53;;;6.10;76.39
64683;BME280;51107;47.652;19.016;2023-02-23T04:58:10;99997.00;;;6.09;74.70
64683;BME280;51107;47.652;19.016;2023-02-23T05:00:42;99996.16;;;6.08;75.55
64683;BME280;51107;47.652;19.016;2023-02-23T05:03:10;99999.09;;;6.15;76.00
64683;BME280;51107;47.652;19.016;2023-02-23T05:05:39;99990.41;;;6.16;75.59
64683;BME280;51107;47.652;19.016;2023-02-23T05:08:08;99996.53;;;6.04;74.52
64683;BME280;51107;47.652;19.016;2023-02-23T05:10:36;100000.16;;;6.12;74.96
64683;BME280;51107;47.652;19.016;2023-02-23T05:13:07;99993.13;;;6.15;75.67
64683;BME280;51107;47.652;19.016;2023-02-23T05:15:35;100003.47;;;6.15;75.38
64683;BME280;51107;47.652;19.016;2023-02-23T05:18:06;99997.47;;;6.14;75.80
64683;BME280;51107;47.652;19.016;2023-02-23T05:20:36;99995.00;;;6.12;75.75
64683;BME280;51107;47.652;19.016;2023-02-23T05:23:04;99995.47;;;6.06;75.68
64683;BME280;51107;47.652;19.016;2023-02-23T05:25:32;100007.34;;;6.09;76.05
64683;BME280;51107;47.652;19.016;2023-02-23T05:28:01;99998.88;;;6.07;75.91
64683;BME280;51107;47.652;19.016;2023-02-23T05:30:29;100006.06;;;6.15;77.50
64683;BME280;51107;47.652;19.016;2023-02-23T05:32:58;100004.66;;;6.10;74.70
64683;BME280;51107;47.652;19.016;2023-02-23T05:35:27;100006.50;;;6.08;75.64
64683;BME280;51107;47.652;19.016;2023-02-23T05:37:55;100002.63;;;6.03;75.47
64683;BME280;51107;47.652;19.016;2023-02-23T05:40:23;100004.66;;;6.10;76.49
64683;BME280;51107;47.652;19.016;2023-02-23T05:42:57;100013.56;;;6.06;75.53
64683;BME280;51107;47.652;19.016;2023-02-23T05:45:26;100013.22;;;6.00;75.60
64683;BME280;51107;47.652;19.016;2023-02-23T05:47:54;100014.75;;;6.02;74.64
64683;BME280;51107;47.652;19.016;2023-02-23T05:50:23;100003.22;;;6.06;74.92
64683;BME280;51107;47.652;19.016;2023-02-23T05:52:51;100012.38;;;5.99;75.01
64683;BME280;51107;47.652;19.016;2023-02-23T05:55:20;100012.03;;;6.04;75.05
64683;BME280;51107;47.652;19.016;2023-02-23T05:57:48;100012.59;;;6.07;75.20
64683;BME280;51107;47.652;19.016;2023-02-23T06:00:18;100010.03;;;6.07;74.67
64683;BME280;51107;47.652;19.016;2023-02-23T06:02:50;100019.44;;;6.08;75.42
64683;BME280;51107;47.652;19.016;2023-02-23T06:05:19;100017.56;;;6.10;76.17
64683;BME280;51107;47.652;19.016;2023-02-23T06:07:48;100013.91;;;6.02;75.63
64683;BME280;51107;47.652;19.016;2023-02-23T06:10:17;100016.28;;;6.05;75.14
64683;BME280;51107;47.652;19.016;2023-02-23T06:12:45;100024.84;;;6.05;75.77
64683;BME280;51107;47.652;19.016;2023-02-23T06:15:13;100028.97;;;6.08;74.84
64683;BME280;51107;47.652;19.016;2023-02-23T06:17:42;100038.25;;;6.10;74.71
64683;BME280;51107;47.652;19.016;2023-02-23T06:20:11;100038.47;;;6.07;73.80
64683;BME280;51107;47.652;19.016;2023-02-23T06:22:40;100042.59;;;6.10;74.50
64683;BME280;51107;47.652;19.016;2023-02-23T06:25:09;100037.31;;;6.11;74.17
64683;BME280;51107;47.652;19.016;2023-02-23T06:27:40;100046.84;;;6.11;73.58
64683;BME280;51107;47.652;19.016;2023-02-23T06:30:09;100042.47;;;6.11;74.39
64683;BME280;51107;47.652;19.016;2023-02-23T06:32:38;100050.16;;;6.13;73.88
64683;BME280;51107;47.652;19.016;2023-02-23T06:35:09;100059.28;;;6.06;73.36
64683;BME280;51107;47.652;19.016;2023-02-23T06:37:38;100055.22;;;6.15;73.75
64683;BME280;51107;47.652;19.016;2023-02-23T06:40:07;100063.78;;;6.15;74.12
64683;BME280;51107;47.652;19.016;2023-02-23T06:42:40;100066.00;;;6.20;74.00
64683;BME280;51107;47.652;19.016;2023-02-23T06:45:09;100069.81;;;6.27;73.00
64683;BME280;51107;47.652;19.016;2023-02-23T06:47:39;100057.31;;;6.21;72.44
64683;BME280;51107;47.652;19.016;2023-02-23T06:50:08;100069.34;;;6.33;74.53
64683;BME280;51107;47.652;19.016;2023-02-23T06:52:37;100064.28;;;6.32;73.40
64683;BME280;51107;47.652;19.016;2023-02-23T06:55:08;100067.78;;;6.31;71.94
64683;BME280;51107;47.652;19.016;2023-02-23T06:57:37;100070.97;;;6.23;72.60
64683;BME280;51107;47.652;19.016;2023-02-23T07:00:07;100072.50;;;6.25;73.20
64683;BME280;51107;47.652;19.016;2023-02-23T07:02:37;100079.91;;;6.19;71.53
64683;BME280;51107;47.652;19.016;2023-02-23T07:05:05;100080.59;;;6.32;72.71
64683;BME280;51107;47.652;19.016;2023-02-23T07:07:34;100077.09;;;6.33;71.23
64683;BME280;51107;47.652;19.016;2023-02-23T07:10:03;100076.03;;;6.24;71.04
64683;BME280;51107;47.652;19.016;2023-02-23T07:12:32;100072.28;;;6.28;71.60
64683;BME280;51107;47.652;19.016;2023-02-23T07:15:01;100080.03;;;6.40;73.25
64683;BME280;51107;47.652;19.016;2023-02-23T07:17:29;100077.22;;;6.43;70.29
64683;BME280;51107;47.652;19.016;2023-02-23T07:19:58;100080.41;;;6.46;70.59
64683;BME280;51107;47.652;19.016;2023-02-23T07:22:27;100088.16;;;6.46;70.48
64683;BME280;51107;47.652;19.016;2023-02-23T07:24:57;100086.28;;;6.49;70.52
64683;BME280;51107;47.652;19.016;2023-02-23T07:27:26;100085.59;;;6.46;69.57
64683;BME280;51107;47.652;19.016;2023-02-23T07:29:54;100084.16;;;6.42;68.45
64683;BME280;51107;47.652;19.016;2023-02-23T07:32:23;100085.81;;;6.43;69.11
64683;BME280;51107;47.652;19.016;2023-02-23T07:34:52;100081.09;;;6.49;70.92
64683;BME280;51107;47.652;19.016;2023-02-23T07:37:20;100079.47;;;6.48;69.25
64683;BME280;51107;47.652;19.016;2023-02-23T07:39:49;100086.62;;;6.55;70.22
64683;BME280;51107;47.652;19.016;2023-02-23T07:42:17;100085.59;;;6.58;68.42
64683;BME280;51107;47.652;19.016;2023-02-23T07:44:46;100084.66;;;6.59;69.22
64683;BME280;51107;47.652;19.016;2023-02-23T07:47:14;100090.31;;;6.64;68.61
64683;BME280;51107;47.652;19.016;2023-02-23T07:49:43;100089.34;;;6.65;69.45
64683;BME280;51107;47.652;19.016;2023-02-23T07:52:11;100090.63;;;6.71;67.88
64683;BME280;51107;47.652;19.016;2023-02-23T07:54:39;100089.22;;;6.67;66.81
64683;BME280;51107;47.652;19.016;2023-02-23T07:57:08;100094.87;;;6.72;67.28
64683;BME280;51107;47.652;19.016;2023-02-23T07:59:36;100089.00;;;6.81;68.50
64683;BME280;51107;47.652;19.016;2023-02-23T08:02:06;100083.00;;;6.80;68.94
64683;BME280;51107;47.652;19.016;2023-02-23T08:04:34;100089.38;;;6.76;67.45
64683;BME280;51107;47.652;19.016;2023-02-23T08:07:03;100083.47;;;6.86;67.42
64683;BME280;51107;47.652;19.016;2023-02-23T08:09:31;100090.91;;;6.90;68.23
64683;BME280;51107;47.652;19.016;2023-02-23T08:12:03;100085.94;;;6.99;67.56
64683;BME280;51107;47.652;19.016;2023-02-23T08:14:31;100089.31;;;7.10;67.65
64683;BME280;51107;47.652;19.016;2023-02-23T08:16:59;100092.44;;;6.93;65.05
64683;BME280;51107;47.652;19.016;2023-02-23T08:19:29;100088.37;;;7.11;65.86
64683;BME280;51107;47.652;19.016;2023-02-23T08:21:57;100086.81;;;7.20;67.23
64683;BME280;51107;47.652;19.016;2023-02-23T08:24:26;100090.59;;;7.16;65.56
64683;BME280;51107;47.652;19.016;2023-02-23T08:26:57;100094.06;;;6.94;63.21
64683;BME280;51107;47.652;19.016;2023-02-23T08:29:26;100091.34;;;6.95;64.70
64683;BME280;51107;47.652;19.016;2023-02-23T08:31:54;100089.09;;;7.13;66.76
64683;BME280;51107;47.652;19.016;2023-02-23T08:34:24;100091.53;;;7.26;65.39
64683;BME280;51107;47.652;19.016;2023-02-23T08:36:52;100089.84;;;7.37;66.56
64683;BME280;51107;47.652;19.016;2023-02-23T08:39:21;100102.69;;;7.38;65.26
64683;BME280;51107;47.652;19.016;2023-02-23T08:41:50;100092.91;;;7.42;64.86
64683;BME280;51107;47.652;19.016;2023-02-23T08:44:19;100092.84;;;7.21;62.52
64683;BME280;51107;47.652;19.016;2023-02-23T08:46:47;100101.75;;;7.39;64.86
64683;BME280;51107;47.652;19.016;2023-02-23T08:49:16;100099.50;;;7.46;64.97
64683;BME280;51107;47.652;19.016;2023-02-23T08:51:44;100099.50;;;7.46;64.22
64683;BME280;51107;47.652;19.016;2023-02-23T08:54:14;100091.16;;;7.31;62.15
64683;BME280;51107;47.652;19.016;2023-02-23T08:56:43;100098.69;;;7.45;64.21
64683;BME280;51107;47.652;19.016;2023-02-23T08:59:12;100102.19;;;7.56;62.75
64683;BME280;51107;47.652;19.016;2023-02-23T09:01:41;100110.34;;;7.51;62.47
64683;BME280;51107;47.652;19.016;2023-02-23T09:04:10;100103.03;;;7.45;63.40
64683;BME280;51107;47.652;19.016;2023-02-23T09:06:39;100108.50;;;7.08;61.66
64683;BME280;51107;47.652;19.016;2023-02-23T09:09:09;100106.94;;;7.39;65.86
64683;BME280;51107;47.652;19.016;2023-02-23T09:11:38;100109.06;;;7.34;63.90
64683;BME280;51107;47.652;19.016;2023-02-23T09:14:06;100106.22;;;7.48;62.82
64683;BME280;51107;47.652;19.016;2023-02-23T09:16:35;100109.06;;;7.34;61.72
64683;BME280;51107;47.652;19.016;2023-02-23T09:19:04;100107.75;;;7.51;63.38
64683;BME280;51107;47.652;19.016;2023-02-23T09:21:33;100113.94;;;7.60;64.07
64683;BME280;51107;47.652;19.016;2023-02-23T09:24:01;100113.69;;;7.63;64.36
64683;BME280;51107;47.652;19.016;2023-02-23T09:26:30;100111.31;;;7.71;63.35
64683;BME280;51107;47.652;19.016;2023-02-23T09:29:00;100111.94;;;7.63;62.32
64683;BME280;51107;47.652;19.016;2023-02-23T09:31:28;100114.78;;;7.60;62.92
64683;BME280;51107;47.652;19.016;2023-02-23T09:33:57;100112.84;;;7.74;62.84
64683;BME280;51107;47.652;19.016;2023-02-23T09:36:30;100115.41;;;7.85;63.45
64683;BME280;51107;47.652;19.016;2023-02-23T09:38:59;100120.66;;;7.62;60.93
64683;BME280;51107;47.652;19.016;2023-02-23T09:47:34;100114.50;;;7.75;61.96
64683;BME280;51107;47.652;19.016;2023-02-23T09:50:15;100118.94;;;8.05;64.76
64683;BME280;51107;47.652;19.016;2023-02-23T09:52:51;100115.56;;;7.93;62.04
64683;BME280;51107;47.652;19.016;2023-02-23T09:55:21;100107.81;;;8.14;61.91
64683;BME280;51107;47.652;19.016;2023-02-23T09:57:49;100115.34;;;8.18;61.55
64683;BME280;51107;47.652;19.016;2023-02-23T10:00:21;100115.34;;;8.18;60.99
64683;BME280;51107;47.652;19.016;2023-02-23T10:03:28;100106.56;;;8.09;60.34
64683;BME280;51107;47.652;19.016;2023-02-23T10:06:01;100114.56;;;8.06;61.41
64683;BME280;51107;47.652;19.016;2023-02-23T10:09:37;100119.53;;;8.09;60.75
64683;BME280;51107;47.652;19.016;2023-02-23T10:11:52;100117.19;;;8.27;61.64
64683;BME280;51107;47.652;19.016;2023-02-23T10:20:29;100110.53;;;8.55;59.99
64683;BME280;51107;47.652;19.016;2023-02-23T10:23:03;100120.88;;;8.45;59.88
64683;BME280;51107;47.652;19.016;2023-02-23T10:25:35;100112.81;;;8.70;60.43
64683;BME280;51107;47.652;19.016;2023-02-23T10:28:11;100109.00;;;8.74;60.11
64683;BME280;51107;47.652;19.016;2023-02-23T10:30:43;100111.00;;;8.91;60.27
64683;BME280;51107;47.652;19.016;2023-02-23T10:33:18;100109.88;;;8.94;60.59
64683;BME280;51107;47.652;19.016;2023-02-23T10:35:48;100098.16;;;8.99;59.89
64683;BME280;51107;47.652;19.016;2023-02-23T10:38:21;100097.53;;;8.76;57.35
64683;BME280;51107;47.652;19.016;2023-02-23T10:40:53;100102.72;;;8.76;59.45
64683;BME280;51107;47.652;19.016;2023-02-23T10:43:22;100099.91;;;8.58;59.43
64683;BME280;51107;47.652;19.016;2023-02-23T10:45:52;100094.03;;;8.87;59.54
64683;BME280;51107;47.652;19.016;2023-02-23T10:48:27;100099.25;;;8.97;59.05
64683;BME280;51107;47.652;19.016;2023-02-23T10:50:57;100095.66;;;8.57;58.74
64683;BME280;51107;47.652;19.016;2023-02-23T10:53:34;100083.88;;;8.84;60.13
64683;BME280;51107;47.652;19.016;2023-02-23T10:56:10;100084.53;;;8.76;57.35
64683;BME280;51107;47.652;19.016;2023-02-23T10:58:47;100074.44;;;8.83;56.60
64683;BME280;51107;47.652;19.016;2023-02-23T11:04:24;100070.91;;;8.94;56.88
64683;BME280;51107;47.652;19.016;2023-02-23T11:07:07;100074.69;;;8.80;55.09
64683;BME280;51107;47.652;19.016;2023-02-23T11:09:36;100075.00;;;8.87;56.78
64683;BME280;51107;47.652;19.016;2023-02-23T11:12:25;100073.94;;;8.99;56.37
64683;BME280;51107;47.652;19.016;2023-02-23T11:18:20;100063.72;;;9.27;57.52
64683;BME280;51107;47.652;19.016;2023-02-23T11:20:50;100059.50;;;9.45;57.51
64683;BME280;51107;47.652;19.016;2023-02-23T11:23:24;100039.81;;;9.52;56.89
64683;BME280;51107;47.652;19.016;2023-02-23T11:25:58;100051.72;;;9.45;55.96
64683;BME280;51107;47.652;19.016;2023-02-23T11:28:35;100042.78;;;9.18;54.51
64683;BME280;51107;47.652;19.016;2023-02-23T11:31:16;100054.69;;;9.11;56.41
64683;BME280;51107;47.652;19.016;2023-02-23T11:33:48;100045.50;;;8.97;55.67
64683;BME280;51107;47.652;19.016;2023-02-23T11:36:27;100045.34;;;8.99;55.52
64683;BME280;51107;47.652;19.016;2023-02-23T11:41:34;100043.34;;;9.32;56.17
64683;BME280;51107;47.652;19.016;2023-02-23T11:44:04;100042.62;;;9.10;55.52
64683;BME280;51107;47.652;19.016;2023-02-23T11:46:37;100036.78;;;9.47;57.33
64683;BME280;51107;47.652;19.016;2023-02-23T11:49:11;100024.31;;;9.61;58.14
64683;BME280;51107;47.652;19.016;2023-02-23T11:51:47;100045.97;;;9.71;57.60
64683;BME280;51107;47.652;19.016;2023-02-23T11:56:54;100031.84;;;9.64;54.80
64683;BME280;51107;47.652;19.016;2023-02-23T11:59:34;100031.19;;;9.62;55.14
64683;BME280;51107;47.652;19.016;2023-02-23T12:02:20;100021.19;;;9.77;58.63
64683;BME280;51107;47.652;19.016;2023-02-23T12:05:39;100023.63;;;9.88;57.18
64683;BME280;51107;47.652;19.016;2023-02-23T12:08:10;100017.34;;;9.71;55.49
64683;BME280;51107;47.652;19.016;2023-02-23T12:10:48;100019.94;;;9.61;55.26
64683;BME280;51107;47.652;19.016;2023-02-23T12:22:15;100006.56;;;9.46;57.22
64683;BME280;51107;47.652;19.016;2023-02-23T12:25:23;100008.44;;;9.54;57.28
64683;BME280;51107;47.652;19.016;2023-02-23T12:28:02;99996.97;;;9.47;56.75
64683;BME280;51107;47.652;19.016;2023-02-23T12:34:09;99999.97;;;9.13;55.11
64683;BME280;51107;47.652;19.016;2023-02-23T12:39:07;99998.47;;;9.40;58.48
64683;BME280;51107;47.652;19.016;2023-02-23T12:44:51;99991.06;;;9.25;56.00
64683;BME280;51107;47.652;19.016;2023-02-23T12:50:31;99980.13;;;9.02;55.86
64683;BME280;51107;47.652;19.016;2023-02-23T12:53:24;99988.47;;;9.15;56.52
64683;BME280;51107;47.652;19.016;2023-02-23T12:56:01;99988.31;;;9.37;60.62
64683;BME280;51107;47.652;19.016;2023-02-23T13:01:30;99979.72;;;9.36;57.70
64683;BME280;51107;47.652;19.016;2023-02-23T13:06:56;99962.31;;;9.37;55.56
64683;BME280;51107;47.652;19.016;2023-02-23T13:12:16;99972.63;;;9.38;56.90
64683;BME280;51107;47.652;19.016;2023-02-23T13:14:59;99960.56;;;9.37;57.37
64683;BME280;51107;47.652;19.016;2023-02-23T13:20:46;99954.66;;;9.35;56.84
64683;BME280;51107;47.652;19.016;2023-02-23T13:23:34;99946.22;;;9.33;57.31
64683;BME280;51107;47.652;19.016;2023-02-23T13:29:15;99949.19;;;9.28;56.48
64683;BME280;51107;47.652;19.016;2023-02-23T13:31:44;99956.19;;;9.28;57.66
64683;BME280;51107;47.652;19.016;2023-02-23T13:34:26;99953.19;;;9.42;56.93
64683;BME280;51107;47.652;19.016;2023-02-23T13:36:56;99953.69;;;9.56;57.38
64683;BME280;51107;47.652;19.016;2023-02-23T13:52:52;99933.75;;;9.46;57.30
64683;BME280;51107;47.652;19.016;2023-02-23T13:58:12;99933.47;;;9.40;57.42
64683;BME280;51107;47.652;19.016;2023-02-23T14:00:53;99927.16;;;9.52;58.16
64683;BME280;51107;47.652;19.016;2023-02-23T14:03:40;99929.78;;;9.42;57.05
64683;BME280;51107;47.652;19.016;2023-02-23T14:06:12;99934.00;;;9.43;58.11
64683;BME280;51107;47.652;19.016;2023-02-23T14:08:44;99933.28;;;9.61;58.04
64683;BME280;51107;47.652;19.016;2023-02-23T14:11:27;99937.97;;;9.38;56.45
64683;BME280;51107;47.652;19.016;2023-02-23T14:14:01;99931.97;;;9.37;56.65
64683;BME280;51107;47.652;19.016;2023-02-23T14:16:32;99928.53;;;9.37;57.81
64683;BME280;51107;47.652;19.016;2023-02-23T14:19:05;99928.66;;;9.55;59.56
64683;BME280;51107;47.652;19.016;2023-02-23T14:21:42;99926.47;;;9.40;56.61
64683;BME280;51107;47.652;19.016;2023-02-23T14:24:23;99937.84;;;9.29;56.94
64683;BME280;51107;47.652;19.016;2023-02-23T14:27:23;99929.91;;;9.31;57.24
64683;BME280;51107;47.652;19.016;2023-02-23T14:32:40;99937.31;;;9.35;58.89
64683;BME280;51107;47.652;19.016;2023-02-23T14:38:02;99939.22;;;9.24;57.97
64683;BME280;51107;47.652;19.016;2023-02-23T14:40:34;99942.38;;;9.17;58.13
64683;BME280;51107;47.652;19.016;2023-02-23T14:43:44;99930.63;;;9.23;59.78
64683;BME280;51107;47.652;19.016;2023-02-23T14:46:19;99937.06;;;9.19;58.07
64683;BME280;51107;47.652;19.016;2023-02-23T14:49:24;99939.78;;;9.27;59.89
64683;BME280;51107;47.652;19.016;2023-02-23T14:51:45;99937.03;;;9.29;60.01
64683;BME280;51107;47.652;19.016;2023-02-23T14:54:38;99933.09;;;9.15;57.53
64683;BME280;51107;47.652;19.016;2023-02-23T14:57:21;99931.16;;;9.27;59.10
64683;BME280;51107;47.652;19.016;2023-02-23T14:59:59;99925.69;;;9.30;61.21
64683;BME280;51107;47.652;19.016;2023-02-23T15:02:29;99925.94;;;9.27;58.83
64683;BME280;51107;47.652;19.016;2023-02-23T15:04:57;99916.78;;;9.23;58.95
64683;BME280;51107;47.652;19.016;2023-02-23T15:07:35;99915.03;;;9.23;60.07
64683;BME280;51107;47.652;19.016;2023-02-23T15:10:15;99909.84;;;9.13;58.42
64683;BME280;51107;47.652;19.016;2023-02-23T15:12:45;99915.16;;;9.22;60.13
64683;BME280;51107;47.652;19.016;2023-02-23T15:15:21;99914.88;;;9.15;58.57
64683;BME280;51107;47.652;19.016;2023-02-23T15:17:53;99912.56;;;9.12;58.80
64683;BME280;51107;47.652;19.016;2023-02-23T15:20:29;99901.06;;;9.14;59.86
64683;BME280;51107;47.652;19.016;2023-02-23T15:23:02;99913.25;;;9.14;60.85
64683;BME280;51107;47.652;19.016;2023-02-23T15:25:37;99903.13;;;9.11;60.56
64683;BME280;51107;47.652;19.016;2023-02-23T15:28:26;99896.00;;;9.13;61.58
64683;BME280;51107;47.652;19.016;2023-02-23T15:31:01;99911.06;;;9.09;60.79
64683;BME280;51107;47.652;19.016;2023-02-23T15:33:33;99910.37;;;9.07;61.16
64683;BME280;51107;47.652;19.016;2023-02-23T15:36:05;99896.00;;;9.03;60.27
64683;BME280;51107;47.652;19.016;2023-02-23T15:38:43;99898.75;;;9.01;61.46